sensor_id;sensor_type;location;lat;lon;timestamp;pressure;altitude;pressure_sealevel;temperature;humidity
45441;BME280;31189;38.790;-77.084;2023-12-20T00:01:42;102465.65;;;4.35;30.79
45441;BME280;31189;38.790;-77.084;2023-12-20T00:04:11;102473.00;;;3.35;30.41
45441;BME280;31189;38.790;-77.084;2023-12-20T00:06:28;102478.60;;;4.26;30.70
45441;BME280;31189;38.790;-77.084;2023-12-20T00:08:58;102482.56;;;3.51;31.43
45441;BME280;31189;38.790;-77.084;2023-12-20T00:11:19;102484.33;;;4.03;31.09
45441;BME280;31189;38.790;-77.084;2023-12-20T00:13:45;102478.54;;;0.49;34.72
45441;BME280;31189;38.790;-77.084;2023-12-20T00:16:10;102479.44;;;1.77;34.78
45441;BME280;31189;38.790;-77.084;2023-12-20T00:18:36;102481.62;;;1.64;34.23
45441;BME280;31189;38.790;-77.084;2023-12-20T00:21:02;102483.14;;;2.59;33.24
45441;BME280;31189;38.790;-77.084;2023-12-20T00:23:28;102492.98;;;3.06;33.25
45441;BME280;31189;38.790;-77.084;2023-12-20T00:25:53;102499.18;;;3.29;32.48
45441;BME280;31189;38.790;-77.084;2023-12-20T00:28:19;102502.49;;;3.75;31.68
45441;BME280;31189;38.790;-77.084;2023-12-20T00:30:45;102504.86;;;3.35;31.59
45441;BME280;31189;38.790;-77.084;2023-12-20T00:33:10;102508.31;;;3.65;31.80
45441;BME280;31189;38.790;-77.084;2023-12-20T00:35:36;102513.86;;;2.46;32.61
45441;BME280;31189;38.790;-77.084;2023-12-20T00:38:02;102517.12;;;3.45;32.49
45441;BME280;31189;38.790;-77.084;2023-12-20T00:40:27;102520.17;;;2.87;32.93
45441;BME280;31189;38.790;-77.084;2023-12-20T00:42:53;102524.30;;;3.91;31.74
45441;BME280;31189;38.790;-77.084;2023-12-20T00:45:19;102524.37;;;3.59;32.34
45441;BME280;31189;38.790;-77.084;2023-12-20T00:47:46;102530.36;;;4.33;31.45
45441;BME280;31189;38.790;-77.084;2023-12-20T00:50:10;102532.43;;;4.04;30.95
45441;BME280;31189;38.790;-77.084;2023-12-20T00:52:41;102536.26;;;1.78;33.17
45441;BME280;31189;38.790;-77.084;2023-12-20T00:55:02;102544.50;;;0.30;34.04
45441;BME280;31189;38.790;-77.084;2023-12-20T00:57:32;102550.49;;;3.15;31.69
45441;BME280;31189;38.790;-77.084;2023-12-20T00:59:53;102552.53;;;2.91;32.87
45441;BME280;31189;38.790;-77.084;2023-12-20T01:02:28;102557.44;;;3.74;32.06
45441;BME280;31189;38.790;-77.084;2023-12-20T01:04:44;102549.77;;;1.05;34.30
45441;BME280;31189;38.790;-77.084;2023-12-20T01:07:10;102553.74;;;1.97;33.78
45441;BME280;31189;38.790;-77.084;2023-12-20T01:09:36;102560.37;;;0.21;34.66
45441;BME280;31189;38.790;-77.084;2023-12-20T01:12:02;102563.95;;;1.01;35.07
45441;BME280;31189;38.790;-77.084;2023-12-20T01:14:27;102573.99;;;1.29;34.12
45441;BME280;31189;38.790;-77.084;2023-12-20T01:16:53;102579.61;;;1.95;34.58
45441;BME280;31189;38.790;-77.084;2023-12-20T01:19:20;102583.11;;;3.16;32.60
45441;BME280;31189;38.790;-77.084;2023-12-20T01:21:44;102586.21;;;3.99;31.79
45441;BME280;31189;38.790;-77.084;2023-12-20T01:24:10;102593.29;;;2.06;32.93
45441;BME280;31189;38.790;-77.084;2023-12-20T01:26:36;102588.86;;;1.24;33.70
45441;BME280;31189;38.790;-77.084;2023-12-20T01:29:01;102595.36;;;2.93;32.98
45441;BME280;31189;38.790;-77.084;2023-12-20T01:31:27;102596.64;;;2.30;33.15
45441;BME280;31189;38.790;-77.084;2023-12-20T01:33:53;102601.32;;;0.54;34.32
45441;BME280;31189;38.790;-77.084;2023-12-20T01:36:19;102605.40;;;2.65;32.83
45441;BME280;31189;38.790;-77.084;2023-12-20T01:38:44;102606.37;;;2.11;33.69
45441;BME280;31189;38.790;-77.084;2023-12-20T01:41:10;102608.42;;;1.17;33.76
45441;BME280;31189;38.790;-77.084;2023-12-20T01:43:36;102612.16;;;1.69;34.27
45441;BME280;31189;38.790;-77.084;2023-12-20T01:46:01;102616.25;;;2.59;32.70
45441;BME280;31189;38.790;-77.084;2023-12-20T01:48:28;102616.60;;;1.91;34.08
45441;BME280;31189;38.790;-77.084;2023-12-20T01:50:53;102618.99;;;2.37;33.57
45441;BME280;31189;38.790;-77.084;2023-12-20T01:53:20;102622.38;;;-0.00;36.73
45441;BME280;31189;38.790;-77.084;2023-12-20T01:55:44;102621.40;;;2.26;34.38
45441;BME280;31189;38.790;-77.084;2023-12-20T01:58:10;102622.57;;;2.71;33.20
45441;BME280;31189;38.790;-77.084;2023-12-20T02:00:36;102626.90;;;3.31;32.38
45441;BME280;31189;38.790;-77.084;2023-12-20T02:03:02;102631.24;;;4.30;31.35
45441;BME280;31189;38.790;-77.084;2023-12-20T02:05:27;102637.71;;;1.64;32.58
45441;BME280;31189;38.790;-77.084;2023-12-20T02:07:52;102642.83;;;2.72;33.01
45441;BME280;31189;38.790;-77.084;2023-12-20T02:10:18;102648.65;;;2.27;32.63
45441;BME280;31189;38.790;-77.084;2023-12-20T02:12:44;102654.63;;;3.94;31.26
45441;BME280;31189;38.790;-77.084;2023-12-20T02:15:10;102662.16;;;3.92;31.23
45441;BME280;31189;38.790;-77.084;2023-12-20T02:17:36;102660.59;;;4.10;31.04
45441;BME280;31189;38.790;-77.084;2023-12-20T02:20:01;102666.59;;;4.71;30.72
45441;BME280;31189;38.790;-77.084;2023-12-20T02:22:27;102663.78;;;4.35;31.28
45441;BME280;31189;38.790;-77.084;2023-12-20T02:24:52;102671.16;;;3.96;31.74
45441;BME280;31189;38.790;-77.084;2023-12-20T02:27:18;102672.81;;;3.94;31.31
45441;BME280;31189;38.790;-77.084;2023-12-20T02:29:43;102676.03;;;3.71;31.48
45441;BME280;31189;38.790;-77.084;2023-12-20T02:32:09;102679.01;;;0.20;34.31
45441;BME280;31189;38.790;-77.084;2023-12-20T02:34:35;102681.25;;;2.43;33.30
45441;BME280;31189;38.790;-77.084;2023-12-20T02:37:00;102683.81;;;3.63;32.33
45441;BME280;31189;38.790;-77.084;2023-12-20T02:39:26;102684.52;;;3.11;31.57
45441;BME280;31189;38.790;-77.084;2023-12-20T02:41:52;102687.47;;;3.24;31.69
45441;BME280;31189;38.790;-77.084;2023-12-20T02:44:17;102683.71;;;4.30;31.44
45441;BME280;31189;38.790;-77.084;2023-12-20T02:46:43;102686.68;;;4.63;31.10
45441;BME280;31189;38.790;-77.084;2023-12-20T02:49:09;102688.16;;;4.19;31.20
45441;BME280;31189;38.790;-77.084;2023-12-20T02:51:34;102689.19;;;4.84;30.96
45441;BME280;31189;38.790;-77.084;2023-12-20T02:54:00;102689.68;;;4.26;31.03
45441;BME280;31189;38.790;-77.084;2023-12-20T02:56:26;102690.56;;;3.59;31.54
45441;BME280;31189;38.790;-77.084;2023-12-20T02:58:51;102694.13;;;4.56;30.44
45441;BME280;31189;38.790;-77.084;2023-12-20T03:01:17;102700.30;;;4.08;30.90
45441;BME280;31189;38.790;-77.084;2023-12-20T03:03:43;102700.27;;;3.73;31.03
45441;BME280;31189;38.790;-77.084;2023-12-20T03:06:08;102704.08;;;4.50;31.12
45441;BME280;31189;38.790;-77.084;2023-12-20T03:08:34;102706.92;;;4.98;30.88
45441;BME280;31189;38.790;-77.084;2023-12-20T03:11:00;102706.22;;;5.06;31.09
45441;BME280;31189;38.790;-77.084;2023-12-20T03:13:25;102709.17;;;5.27;30.90
45441;BME280;31189;38.790;-77.084;2023-12-20T03:15:51;102708.48;;;4.83;30.68
45441;BME280;31189;38.790;-77.084;2023-12-20T03:18:17;102715.80;;;5.49;30.73
45441;BME280;31189;38.790;-77.084;2023-12-20T03:20:42;102719.12;;;3.57;31.10
45441;BME280;31189;38.790;-77.084;2023-12-20T03:23:08;102729.55;;;3.50;31.96
45441;BME280;31189;38.790;-77.084;2023-12-20T03:25:34;102734.86;;;4.22;31.72
45441;BME280;31189;38.790;-77.084;2023-12-20T03:27:59;102733.01;;;4.67;31.88
45441;BME280;31189;38.790;-77.084;2023-12-20T03:30:25;102736.55;;;4.01;31.95
45441;BME280;31189;38.790;-77.084;2023-12-20T03:32:51;102743.14;;;3.67;31.95
45441;BME280;31189;38.790;-77.084;2023-12-20T03:35:16;102740.71;;;3.91;32.19
45441;BME280;31189;38.790;-77.084;2023-12-20T03:37:42;102739.60;;;2.90;32.26
45441;BME280;31189;38.790;-77.084;2023-12-20T03:40:08;102740.52;;;2.58;33.62
45441;BME280;31189;38.790;-77.084;2023-12-20T03:42:34;102746.33;;;3.64;33.46
45441;BME280;31189;38.790;-77.084;2023-12-20T03:44:59;102750.69;;;4.26;32.55
45441;BME280;31189;38.790;-77.084;2023-12-20T03:47:25;102749.72;;;4.45;32.40
45441;BME280;31189;38.790;-77.084;2023-12-20T03:49:50;102751.14;;;3.89;32.25
45441;BME280;31189;38.790;-77.084;2023-12-20T03:52:16;102758.45;;;3.61;33.32
45441;BME280;31189;38.790;-77.084;2023-12-20T03:54:42;102759.51;;;3.42;33.51
45441;BME280;31189;38.790;-77.084;2023-12-20T03:57:07;102756.99;;;2.95;34.12
45441;BME280;31189;38.790;-77.084;2023-12-20T03:59:35;102755.58;;;3.65;33.87
45441;BME280;31189;38.790;-77.084;2023-12-20T04:01:59;102758.12;;;3.83;33.25
45441;BME280;31189;38.790;-77.084;2023-12-20T04:04:24;102758.42;;;4.47;32.79
45441;BME280;31189;38.790;-77.084;2023-12-20T04:06:50;102758.53;;;3.93;33.35
45441;BME280;31189;38.790;-77.084;2023-12-20T04:09:16;102754.90;;;4.55;33.17
45441;BME280;31189;38.790;-77.084;2023-12-20T04:11:41;102755.32;;;3.80;34.03
45441;BME280;31189;38.790;-77.084;2023-12-20T04:14:07;102749.56;;;3.61;34.70
45441;BME280;31189;38.790;-77.084;2023-12-20T04:16:33;102753.38;;;3.60;35.27
45441;BME280;31189;38.790;-77.084;2023-12-20T04:18:58;102759.72;;;2.23;36.27
45441;BME280;31189;38.790;-77.084;2023-12-20T04:21:24;102759.34;;;2.76;36.52
45441;BME280;31189;38.790;-77.084;2023-12-20T04:23:50;102757.90;;;2.21;37.02
45441;BME280;31189;38.790;-77.084;2023-12-20T04:26:15;102763.89;;;1.88;37.22
45441;BME280;31189;38.790;-77.084;2023-12-20T04:28:41;102771.03;;;1.89;36.65
45441;BME280;31189;38.790;-77.084;2023-12-20T04:31:08;102770.97;;;2.70;36.26
45441;BME280;31189;38.790;-77.084;2023-12-20T04:33:32;102765.67;;;3.12;35.63
45441;BME280;31189;38.790;-77.084;2023-12-20T04:35:58;102766.99;;;2.75;35.97
45441;BME280;31189;38.790;-77.084;2023-12-20T04:38:24;102764.04;;;3.19;35.32
45441;BME280;31189;38.790;-77.084;2023-12-20T04:40:49;102766.50;;;2.55;35.65
45441;BME280;31189;38.790;-77.084;2023-12-20T04:43:15;102766.66;;;3.54;35.26
45441;BME280;31189;38.790;-77.084;2023-12-20T04:45:41;102764.71;;;3.64;35.41
45441;BME280;31189;38.790;-77.084;2023-12-20T04:48:07;102764.48;;;3.48;35.61
45441;BME280;31189;38.790;-77.084;2023-12-20T04:50:32;102765.20;;;3.46;35.85
45441;BME280;31189;38.790;-77.084;2023-12-20T04:52:58;102768.44;;;3.11;36.39
45441;BME280;31189;38.790;-77.084;2023-12-20T04:55:23;102772.09;;;2.94;36.49
45441;BME280;31189;38.790;-77.084;2023-12-20T04:57:49;102773.13;;;2.81;36.31
45441;BME280;31189;38.790;-77.084;2023-12-20T05:00:15;102774.03;;;2.70;36.89
45441;BME280;31189;38.790;-77.084;2023-12-20T05:02:40;102770.94;;;1.66;37.41
45441;BME280;31189;38.790;-77.084;2023-12-20T05:05:07;102765.75;;;2.68;36.97
45441;BME280;31189;38.790;-77.084;2023-12-20T05:07:32;102763.62;;;2.52;37.50
45441;BME280;31189;38.790;-77.084;2023-12-20T05:09:58;102758.72;;;2.41;36.73
45441;BME280;31189;38.790;-77.084;2023-12-20T05:12:23;102759.33;;;2.59;36.78
45441;BME280;31189;38.790;-77.084;2023-12-20T05:14:49;102769.25;;;1.81;37.21
45441;BME280;31189;38.790;-77.084;2023-12-20T05:17:15;102773.22;;;2.31;37.33
45441;BME280;31189;38.790;-77.084;2023-12-20T05:19:40;102774.25;;;3.08;35.69
45441;BME280;31189;38.790;-77.084;2023-12-20T05:22:06;102772.83;;;3.18;35.22
45441;BME280;31189;38.790;-77.084;2023-12-20T05:24:32;102769.93;;;3.26;35.57
45441;BME280;31189;38.790;-77.084;2023-12-20T05:26:57;102769.61;;;2.72;36.13
45441;BME280;31189;38.790;-77.084;2023-12-20T05:29:23;102771.54;;;3.44;34.88
45441;BME280;31189;38.790;-77.084;2023-12-20T05:31:49;102774.19;;;3.33;35.47
45441;BME280;31189;38.790;-77.084;2023-12-20T05:34:14;102777.57;;;2.11;34.82
45441;BME280;31189;38.790;-77.084;2023-12-20T05:36:40;102777.90;;;3.44;33.88
45441;BME280;31189;38.790;-77.084;2023-12-20T05:39:06;102785.15;;;1.15;35.72
45441;BME280;31189;38.790;-77.084;2023-12-20T05:41:31;102790.34;;;2.12;36.26
45441;BME280;31189;38.790;-77.084;2023-12-20T05:43:57;102791.80;;;2.20;35.86
45441;BME280;31189;38.790;-77.084;2023-12-20T05:46:22;102784.68;;;-0.17;37.58
45441;BME280;31189;38.790;-77.084;2023-12-20T05:48:48;102792.25;;;2.50;36.27
45441;BME280;31189;38.790;-77.084;2023-12-20T05:51:14;102788.97;;;2.50;35.32
45441;BME280;31189;38.790;-77.084;2023-12-20T05:53:39;102790.73;;;2.02;34.88
45441;BME280;31189;38.790;-77.084;2023-12-20T05:56:05;102792.04;;;1.84;35.45
45441;BME280;31189;38.790;-77.084;2023-12-20T05:58:31;102794.25;;;1.80;36.40
45441;BME280;31189;38.790;-77.084;2023-12-20T06:00:56;102797.76;;;2.51;34.54
45441;BME280;31189;38.790;-77.084;2023-12-20T06:03:22;102803.03;;;1.96;35.05
45441;BME280;31189;38.790;-77.084;2023-12-20T06:05:48;102803.54;;;2.66;35.36
45441;BME280;31189;38.790;-77.084;2023-12-20T06:08:13;102799.79;;;2.49;35.03
45441;BME280;31189;38.790;-77.084;2023-12-20T06:10:39;102799.83;;;1.13;36.48
45441;BME280;31189;38.790;-77.084;2023-12-20T06:13:06;102805.03;;;2.74;35.25
45441;BME280;31189;38.790;-77.084;2023-12-20T06:15:30;102806.76;;;2.71;34.54
45441;BME280;31189;38.790;-77.084;2023-12-20T06:17:56;102808.05;;;3.05;34.24
45441;BME280;31189;38.790;-77.084;2023-12-20T06:20:22;102810.07;;;2.69;34.20
45441;BME280;31189;38.790;-77.084;2023-12-20T06:22:47;102807.31;;;1.13;34.86
45441;BME280;31189;38.790;-77.084;2023-12-20T06:25:13;102804.90;;;0.21;36.20
45441;BME280;31189;38.790;-77.084;2023-12-20T06:27:39;102805.23;;;1.76;35.76
45441;BME280;31189;38.790;-77.084;2023-12-20T06:30:05;102805.15;;;1.63;35.22
45441;BME280;31189;38.790;-77.084;2023-12-20T06:32:30;102810.34;;;3.10;34.49
45441;BME280;31189;38.790;-77.084;2023-12-20T06:34:56;102811.95;;;2.79;33.80
45441;BME280;31189;38.790;-77.084;2023-12-20T06:37:21;102813.83;;;2.58;34.13
45441;BME280;31189;38.790;-77.084;2023-12-20T06:39:47;102807.65;;;1.80;34.90
45441;BME280;31189;38.790;-77.084;2023-12-20T06:42:13;102809.89;;;2.62;35.58
45441;BME280;31189;38.790;-77.084;2023-12-20T06:44:39;102810.64;;;2.47;34.73
45441;BME280;31189;38.790;-77.084;2023-12-20T06:47:04;102807.63;;;2.82;34.08
45441;BME280;31189;38.790;-77.084;2023-12-20T06:49:30;102806.02;;;3.17;33.39
45441;BME280;31189;38.790;-77.084;2023-12-20T06:51:56;102806.30;;;2.86;33.48
45441;BME280;31189;38.790;-77.084;2023-12-20T06:54:21;102805.29;;;3.25;33.45
45441;BME280;31189;38.790;-77.084;2023-12-20T06:56:47;102802.46;;;3.23;32.83
45441;BME280;31189;38.790;-77.084;2023-12-20T06:59:13;102805.70;;;2.79;34.90
45441;BME280;31189;38.790;-77.084;2023-12-20T07:01:38;102811.02;;;2.98;34.53
45441;BME280;31189;38.790;-77.084;2023-12-20T07:04:04;102819.52;;;3.73;33.64
45441;BME280;31189;38.790;-77.084;2023-12-20T07:06:30;102819.13;;;3.50;32.71
45441;BME280;31189;38.790;-77.084;2023-12-20T07:08:55;102817.85;;;3.55;33.22
45441;BME280;31189;38.790;-77.084;2023-12-20T07:11:21;102819.93;;;3.52;33.28
45441;BME280;31189;38.790;-77.084;2023-12-20T07:13:47;102825.47;;;1.60;35.56
45441;BME280;31189;38.790;-77.084;2023-12-20T07:16:13;102832.17;;;3.14;34.34
45441;BME280;31189;38.790;-77.084;2023-12-20T07:18:38;102832.70;;;2.11;34.87
45441;BME280;31189;38.790;-77.084;2023-12-20T07:21:04;102834.60;;;2.87;34.37
45441;BME280;31189;38.790;-77.084;2023-12-20T07:23:30;102833.81;;;3.34;33.61
45441;BME280;31189;38.790;-77.084;2023-12-20T07:25:55;102831.16;;;3.50;34.02
45441;BME280;31189;38.790;-77.084;2023-12-20T07:28:21;102832.38;;;2.69;34.72
45441;BME280;31189;38.790;-77.084;2023-12-20T07:30:47;102832.10;;;2.37;33.90
45441;BME280;31189;38.790;-77.084;2023-12-20T07:33:12;102828.88;;;2.49;35.34
45441;BME280;31189;38.790;-77.084;2023-12-20T07:35:38;102824.02;;;3.28;34.55
45441;BME280;31189;38.790;-77.084;2023-12-20T07:38:04;102820.39;;;2.75;34.74
45441;BME280;31189;38.790;-77.084;2023-12-20T07:40:29;102813.94;;;3.41;34.10
45441;BME280;31189;38.790;-77.084;2023-12-20T07:42:55;102810.07;;;3.64;33.58
45441;BME280;31189;38.790;-77.084;2023-12-20T07:45:20;102810.72;;;3.29;33.94
45441;BME280;31189;38.790;-77.084;2023-12-20T07:47:47;102809.45;;;3.14;35.11
45441;BME280;31189;38.790;-77.084;2023-12-20T07:50:12;102809.84;;;3.55;34.27
45441;BME280;31189;38.790;-77.084;2023-12-20T07:52:38;102808.89;;;3.94;33.87
45441;BME280;31189;38.790;-77.084;2023-12-20T07:55:03;102815.97;;;2.66;35.02
45441;BME280;31189;38.790;-77.084;2023-12-20T07:57:29;102813.24;;;3.20;33.51
45441;BME280;31189;38.790;-77.084;2023-12-20T07:59:55;102822.04;;;2.75;35.89
45441;BME280;31189;38.790;-77.084;2023-12-20T08:02:20;102825.75;;;3.48;34.47
45441;BME280;31189;38.790;-77.084;2023-12-20T08:04:46;102827.71;;;3.49;34.79
45441;BME280;31189;38.790;-77.084;2023-12-20T08:07:12;102830.80;;;3.07;34.93
45441;BME280;31189;38.790;-77.084;2023-12-20T08:09:37;102833.47;;;2.97;35.06
45441;BME280;31189;38.790;-77.084;2023-12-20T08:12:03;102828.01;;;3.63;34.65
45441;BME280;31189;38.790;-77.084;2023-12-20T08:14:28;102830.10;;;3.55;34.72
45441;BME280;31189;38.790;-77.084;2023-12-20T08:16:54;102822.60;;;2.92;35.52
45441;BME280;31189;38.790;-77.084;2023-12-20T08:19:20;102823.91;;;3.24;34.73
45441;BME280;31189;38.790;-77.084;2023-12-20T08:21:45;102827.15;;;3.07;34.54
45441;BME280;31189;38.790;-77.084;2023-12-20T08:24:11;102826.06;;;3.61;33.63
45441;BME280;31189;38.790;-77.084;2023-12-20T08:26:37;102825.24;;;3.17;33.99
45441;BME280;31189;38.790;-77.084;2023-12-20T08:29:02;102822.47;;;2.96;33.84
45441;BME280;31189;38.790;-77.084;2023-12-20T08:31:28;102823.84;;;0.77;36.18
45441;BME280;31189;38.790;-77.084;2023-12-20T08:33:54;102827.46;;;2.87;35.42
45441;BME280;31189;38.790;-77.084;2023-12-20T08:36:20;102824.76;;;2.82;35.90
45441;BME280;31189;38.790;-77.084;2023-12-20T08:38:45;102825.30;;;2.70;35.87
45441;BME280;31189;38.790;-77.084;2023-12-20T08:41:11;102825.54;;;2.52;35.87
45441;BME280;31189;38.790;-77.084;2023-12-20T08:43:37;102826.23;;;2.30;36.71
45441;BME280;31189;38.790;-77.084;2023-12-20T08:46:02;102827.05;;;1.32;37.76
45441;BME280;31189;38.790;-77.084;2023-12-20T08:48:28;102823.03;;;1.89;36.49
45441;BME280;31189;38.790;-77.084;2023-12-20T08:50:54;102816.85;;;1.91;37.16
45441;BME280;31189;38.790;-77.084;2023-12-20T08:53:20;102816.67;;;1.78;36.89
45441;BME280;31189;38.790;-77.084;2023-12-20T08:55:45;102815.33;;;1.86;37.22
45441;BME280;31189;38.790;-77.084;2023-12-20T08:58:11;102813.18;;;1.94;37.04
45441;BME280;31189;38.790;-77.084;2023-12-20T09:00:36;102815.29;;;2.39;36.14
45441;BME280;31189;38.790;-77.084;2023-12-20T09:03:02;102816.44;;;2.50;35.94
45441;BME280;31189;38.790;-77.084;2023-12-20T09:05:27;102818.08;;;2.72;36.13
45441;BME280;31189;38.790;-77.084;2023-12-20T09:07:53;102813.12;;;2.40;35.71
45441;BME280;31189;38.790;-77.084;2023-12-20T09:10:19;102810.66;;;2.62;35.87
45441;BME280;31189;38.790;-77.084;2023-12-20T09:12:44;102807.62;;;2.51;36.34
45441;BME280;31189;38.790;-77.084;2023-12-20T09:15:10;102802.73;;;-0.54;39.39
45441;BME280;31189;38.790;-77.084;2023-12-20T09:17:35;102801.90;;;2.01;36.31
45441;BME280;31189;38.790;-77.084;2023-12-20T09:20:01;102804.82;;;2.08;36.45
45441;BME280;31189;38.790;-77.084;2023-12-20T09:22:27;102804.57;;;1.55;37.21
45441;BME280;31189;38.790;-77.084;2023-12-20T09:24:52;102805.39;;;1.95;36.46
45441;BME280;31189;38.790;-77.084;2023-12-20T09:27:18;102810.93;;;1.48;37.77
45441;BME280;31189;38.790;-77.084;2023-12-20T09:29:43;102813.44;;;2.01;36.84
45441;BME280;31189;38.790;-77.084;2023-12-20T09:32:09;102809.60;;;2.16;36.29
45441;BME280;31189;38.790;-77.084;2023-12-20T09:34:35;102812.20;;;2.12;36.24
45441;BME280;31189;38.790;-77.084;2023-12-20T09:37:02;102812.20;;;2.28;36.17
45441;BME280;31189;38.790;-77.084;2023-12-20T09:39:26;102813.42;;;1.60;37.20
45441;BME280;31189;38.790;-77.084;2023-12-20T09:42:00;102808.38;;;1.93;36.67
45441;BME280;31189;38.790;-77.084;2023-12-20T09:44:17;102804.90;;;2.21;36.85
45441;BME280;31189;38.790;-77.084;2023-12-20T09:46:44;102807.16;;;2.46;36.57
45441;BME280;31189;38.790;-77.084;2023-12-20T09:49:08;102801.48;;;1.35;37.73
45441;BME280;31189;38.790;-77.084;2023-12-20T09:51:34;102802.04;;;1.88;37.39
45441;BME280;31189;38.790;-77.084;2023-12-20T09:54:00;102802.62;;;1.23;37.56
45441;BME280;31189;38.790;-77.084;2023-12-20T09:56:26;102803.09;;;1.91;36.77
45441;BME280;31189;38.790;-77.084;2023-12-20T09:58:51;102804.29;;;1.74;37.08
45441;BME280;31189;38.790;-77.084;2023-12-20T10:01:17;102804.82;;;2.17;36.33
45441;BME280;31189;38.790;-77.084;2023-12-20T10:03:42;102806.35;;;2.78;35.99
45441;BME280;31189;38.790;-77.084;2023-12-20T10:06:08;102810.48;;;2.90;35.70
45441;BME280;31189;38.790;-77.084;2023-12-20T10:08:33;102812.10;;;2.85;35.52
45441;BME280;31189;38.790;-77.084;2023-12-20T10:10:59;102814.32;;;2.23;35.86
45441;BME280;31189;38.790;-77.084;2023-12-20T10:13:24;102814.34;;;2.67;35.48
45441;BME280;31189;38.790;-77.084;2023-12-20T10:15:50;102814.94;;;2.02;36.00
45441;BME280;31189;38.790;-77.084;2023-12-20T10:18:17;102816.61;;;2.69;34.92
45441;BME280;31189;38.790;-77.084;2023-12-20T10:20:42;102814.92;;;2.34;35.87
45441;BME280;31189;38.790;-77.084;2023-12-20T10:23:08;102813.81;;;1.77;36.85
45441;BME280;31189;38.790;-77.084;2023-12-20T10:25:33;102815.59;;;1.28;36.89
45441;BME280;31189;38.790;-77.084;2023-12-20T10:28:09;102815.45;;;1.84;36.28
45441;BME280;31189;38.790;-77.084;2023-12-20T10:30:24;102812.96;;;1.61;36.82
45441;BME280;31189;38.790;-77.084;2023-12-20T10:32:50;102814.18;;;0.96;38.05
45441;BME280;31189;38.790;-77.084;2023-12-20T10:35:16;102813.43;;;1.29;37.87
45441;BME280;31189;38.790;-77.084;2023-12-20T10:37:42;102815.26;;;1.64;37.44
45441;BME280;31189;38.790;-77.084;2023-12-20T10:40:08;102815.88;;;1.43;37.66
45441;BME280;31189;38.790;-77.084;2023-12-20T10:42:36;102821.70;;;0.89;38.93
45441;BME280;31189;38.790;-77.084;2023-12-20T10:44:59;102821.97;;;1.04;38.64
45441;BME280;31189;38.790;-77.084;2023-12-20T10:47:25;102821.60;;;0.93;38.26
45441;BME280;31189;38.790;-77.084;2023-12-20T10:49:50;102824.12;;;0.76;38.55
45441;BME280;31189;38.790;-77.084;2023-12-20T10:52:17;102826.92;;;0.96;38.89
45441;BME280;31189;38.790;-77.084;2023-12-20T10:54:41;102824.99;;;0.54;39.29
45441;BME280;31189;38.790;-77.084;2023-12-20T10:57:07;102826.10;;;0.85;38.57
45441;BME280;31189;38.790;-77.084;2023-12-20T10:59:35;102829.86;;;1.80;37.41
45441;BME280;31189;38.790;-77.084;2023-12-20T11:01:58;102835.03;;;1.25;37.54
45441;BME280;31189;38.790;-77.084;2023-12-20T11:04:28;102836.87;;;1.25;38.36
45441;BME280;31189;38.790;-77.084;2023-12-20T11:06:53;102842.83;;;0.76;38.36
45441;BME280;31189;38.790;-77.084;2023-12-20T11:09:22;102848.09;;;1.60;38.13
45441;BME280;31189;38.790;-77.084;2023-12-20T11:11:52;102846.19;;;1.43;38.53
45441;BME280;31189;38.790;-77.084;2023-12-20T11:14:11;102847.34;;;1.88;37.95
45441;BME280;31189;38.790;-77.084;2023-12-20T11:16:32;102849.37;;;1.42;37.75
45441;BME280;31189;38.790;-77.084;2023-12-20T11:19:00;102856.43;;;1.02;38.57
45441;BME280;31189;38.790;-77.084;2023-12-20T11:21:24;102861.11;;;1.54;38.19
45441;BME280;31189;38.790;-77.084;2023-12-20T11:23:49;102866.30;;;0.72;38.79
45441;BME280;31189;38.790;-77.084;2023-12-20T11:26:16;102868.09;;;1.00;39.60
45441;BME280;31189;38.790;-77.084;2023-12-20T11:28:41;102871.91;;;0.53;39.96
45441;BME280;31189;38.790;-77.084;2023-12-20T11:31:06;102876.62;;;0.20;40.76
45441;BME280;31189;38.790;-77.084;2023-12-20T11:33:36;102882.65;;;0.43;40.83
45441;BME280;31189;38.790;-77.084;2023-12-20T11:35:59;102889.85;;;0.95;39.99
45441;BME280;31189;38.790;-77.084;2023-12-20T11:38:24;102894.03;;;1.03;39.61
45441;BME280;31189;38.790;-77.084;2023-12-20T11:40:50;102901.19;;;1.42;38.82
45441;BME280;31189;38.790;-77.084;2023-12-20T11:45:49;102906.41;;;0.80;38.90
45441;BME280;31189;38.790;-77.084;2023-12-20T11:48:07;102914.70;;;-0.43;41.03
45441;BME280;31189;38.790;-77.084;2023-12-20T11:50:32;102911.74;;;1.24;38.88
45441;BME280;31189;38.790;-77.084;2023-12-20T11:52:58;102918.16;;;0.66;39.84
45441;BME280;31189;38.790;-77.084;2023-12-20T11:55:23;102920.39;;;0.91;39.29
45441;BME280;31189;38.790;-77.084;2023-12-20T11:57:50;102914.91;;;1.62;38.54
45441;BME280;31189;38.790;-77.084;2023-12-20T12:00:15;102912.27;;;1.79;38.28
45441;BME280;31189;38.790;-77.084;2023-12-20T12:02:40;102915.43;;;0.72;39.52
45441;BME280;31189;38.790;-77.084;2023-12-20T12:05:07;102918.61;;;0.64;39.54
45441;BME280;31189;38.790;-77.084;2023-12-20T12:07:33;102924.18;;;0.91;39.19
45441;BME280;31189;38.790;-77.084;2023-12-20T12:09:57;102927.53;;;0.60;39.31
45441;BME280;31189;38.790;-77.084;2023-12-20T12:12:23;102932.13;;;0.69;39.38
45441;BME280;31189;38.790;-77.084;2023-12-20T12:14:49;102929.81;;;1.14;38.90
45441;BME280;31189;38.790;-77.084;2023-12-20T12:17:15;102932.57;;;1.24;39.20
45441;BME280;31189;38.790;-77.084;2023-12-20T12:19:41;102929.57;;;1.75;38.79
45441;BME280;31189;38.790;-77.084;2023-12-20T12:22:06;102926.46;;;1.51;38.28
45441;BME280;31189;38.790;-77.084;2023-12-20T12:24:31;102933.38;;;1.40;38.02
45441;BME280;31189;38.790;-77.084;2023-12-20T12:26:58;102936.32;;;1.03;38.11
45441;BME280;31189;38.790;-77.084;2023-12-20T12:29:23;102936.96;;;1.61;37.84
45441;BME280;31189;38.790;-77.084;2023-12-20T12:31:49;102939.64;;;1.29;38.03
45441;BME280;31189;38.790;-77.084;2023-12-20T12:34:14;102943.05;;;1.28;38.79